Time;durP1;ratioP1;P1;durP2;ratioP2;P2;SDS_P1;SDS_P2;PMS_P1;PMS_P2;Temp;Humidity;BMP_temperature;BMP_pressure;BME280_temperature;BME280_humidity;BME280_pressure;Samples;Min_cycle;Max_cycle;Signal;HPM_P1;HPM_P2
2023/01/16 00:01:34;;;;;;;1.10;1.00;;;4.10;1.00;;;;;;5155968;27;20201;-79
2023/01/16 00:04:02;;;;;;;1.88;0.80;;;4.10;1.00;;;;;;5144724;27;20198;-77
2023/01/16 00:06:31;;;;;;;0.90;0.90;;;4.20;1.00;;;;;;5157081;27;20277;-79
2023/01/16 00:09:00;;;;;;;1.42;0.88;;;4.00;1.00;;;;;;5144904;27;20232;-78
2023/01/16 00:11:28;;;;;;;1.10;1.00;;;4.20;1.00;;;;;;5160017;27;20250;-78
2023/01/16 00:13:56;;;;;;;2.75;0.90;;;4.20;2.40;;;;;;5152569;27;20198;-78
2023/01/16 00:16:24;;;;;;;1.50;0.93;;;4.10;1.00;;;;;;5155989;27;22035;-78
2023/01/16 00:18:53;;;;;;;2.17;0.97;;;4.10;1.00;;;;;;5156351;27;20225;-78
2023/01/16 00:21:24;;;;;;;1.10;1.00;;;4.10;1.00;;;;;;5150467;27;20515;-77
2023/01/16 00:23:54;;;;;;;2.15;0.80;;;4.20;99.90;;;;;;5153724;27;21020;-77
2023/01/16 00:26:23;;;;;;;1.60;1.13;;;4.20;1.00;;;;;;5150438;27;20259;-78
2023/01/16 00:28:51;;;;;;;2.50;1.15;;;4.20;1.00;;;;;;5148955;27;20307;-79
2023/01/16 00:31:20;;;;;;;1.70;1.40;;;4.10;1.00;;;;;;5156042;27;20204;-79
2023/01/16 00:33:48;;;;;;;2.43;0.90;;;4.20;1.00;;;;;;5151779;27;20197;-78
2023/01/16 00:36:16;;;;;;;1.67;1.00;;;4.20;1.00;;;;;;5148254;27;20958;-80
2023/01/16 00:38:44;;;;;;;1.60;0.88;;;4.10;1.00;;;;;;5149210;27;20470;-79
2023/01/16 00:41:14;;;;;;;2.58;1.00;;;4.30;1.00;;;;;;5154573;27;20227;-79
2023/01/16 00:43:42;;;;;;;2.17;1.00;;;4.30;1.00;;;;;;5155983;27;20181;-79
2023/01/16 00:46:10;;;;;;;1.58;1.00;;;4.40;1.00;;;;;;5151464;27;20714;-79
2023/01/16 00:48:38;;;;;;;1.15;0.90;;;4.30;1.00;;;;;;5153126;27;20209;-78
2023/01/16 00:51:07;;;;;;;1.70;0.90;;;4.30;1.00;;;;;;5150136;27;20189;-79
2023/01/16 00:53:35;;;;;;;0.90;0.90;;;4.40;1.00;;;;;;5153363;27;20202;-79
2023/01/16 00:56:03;;;;;;;2.25;1.00;;;4.30;1.00;;;;;;5154824;27;20211;-78
2023/01/16 00:58:34;;;;;;;2.78;0.90;;;4.40;1.00;;;;;;5152173;27;20243;-79
2023/01/16 01:01:02;;;;;;;1.27;1.00;;;4.40;1.00;;;;;;5139686;27;20197;-78
2023/01/16 01:03:31;;;;;;;2.05;0.80;;;4.20;1.00;;;;;;5142239;27;20206;-78
2023/01/16 01:05:59;;;;;;;3.00;1.10;;;4.40;28.30;;;;;;5143932;27;20194;-79
2023/01/16 01:08:27;;;;;;;1.88;1.10;;;4.30;1.00;;;;;;5137687;27;20210;-78
2023/01/16 01:10:55;;;;;;;1.63;0.80;;;4.30;1.00;;;;;;5138124;27;20199;-78
2023/01/16 01:13:23;;;;;;;1.50;0.80;;;4.30;1.00;;;;;;5136680;27;20537;-78
2023/01/16 01:15:53;;;;;;;4.68;1.00;;;4.20;1.00;;;;;;5138198;27;20465;-79
2023/01/16 01:18:22;;;;;;;2.00;0.90;;;4.10;1.00;;;;;;5141368;27;20221;-79
2023/01/16 01:20:50;;;;;;;0.90;0.90;;;4.10;1.00;;;;;;5139503;27;20255;-78
2023/01/16 01:23:18;;;;;;;3.67;0.83;;;4.10;1.00;;;;;;5142866;27;20647;-79
2023/01/16 01:25:46;;;;;;;1.77;0.90;;;4.10;1.00;;;;;;5142057;27;20458;-79
2023/01/16 01:28:14;;;;;;;1.50;0.90;;;4.20;1.00;;;;;;5137289;27;20214;-78
2023/01/16 01:30:42;;;;;;;0.95;0.80;;;4.10;1.00;;;;;;5139767;27;20225;-77
2023/01/16 01:33:12;;;;;;;1.20;0.90;;;4.10;1.00;;;;;;5143247;27;20690;-78
2023/01/16 01:35:40;;;;;;;1.35;1.00;;;4.20;1.00;;;;;;5140925;27;20600;-79
2023/01/16 01:38:08;;;;;;;1.27;0.90;;;4.10;1.00;;;;;;5125499;27;20339;-78
2023/01/16 01:40:36;;;;;;;3.95;0.90;;;4.20;1.00;;;;;;5133121;27;20421;-79
2023/01/16 01:43:13;;;;;;;2.35;1.00;;;4.10;1.00;;;;;;5136192;27;20194;-78
2023/01/16 01:45:44;;;;;;;1.70;0.95;;;4.10;64.90;;;;;;5139620;27;20551;-78
2023/01/16 01:48:24;;;;;;;2.00;1.10;;;4.10;1.00;;;;;;5138917;27;20221;-78
2023/01/16 01:50:57;;;;;;;1.23;0.90;;;4.10;1.00;;;;;;5138144;27;20201;-78
2023/01/16 01:53:31;;;;;;;0.93;0.93;;;4.20;1.00;;;;;;5136156;27;20202;-77
2023/01/16 01:56:02;;;;;;;2.40;1.00;;;4.20;1.00;;;;;;5118416;27;20205;-76
2023/01/16 01:58:31;;;;;;;1.20;0.90;;;4.10;1.00;;;;;;5135172;27;20210;-78
2023/01/16 02:01:01;;;;;;;0.80;0.80;;;4.10;1.00;;;;;;5136612;27;20241;-76
2023/01/16 02:03:33;;;;;;;1.20;1.10;;;4.00;1.00;;;;;;5136782;27;20251;-78
2023/01/16 02:06:06;;;;;;;1.00;0.85;;;4.10;1.00;;;;;;5139793;27;20202;-79
2023/01/16 02:08:36;;;;;;;2.28;1.45;;;4.10;1.00;;;;;;5139690;27;21136;-79
2023/01/16 02:11:08;;;;;;;0.90;0.90;;;4.10;1.00;;;;;;5141414;27;20226;-79
2023/01/16 02:13:38;;;;;;;1.58;0.80;;;4.10;1.00;;;;;;5137390;27;20198;-77
2023/01/16 02:22:06;;;;;;;1.00;1.00;;;4.10;1.00;;;;;;5138318;27;20189;-78
2023/01/16 02:25:13;;;;;;;0.80;0.80;;;4.10;1.00;;;;;;5126309;27;20217;-77
2023/01/16 02:28:10;;;;;;;1.20;0.70;;;4.10;1.00;;;;;;5104726;27;20209;-77
2023/01/16 02:31:21;;;;;;;1.30;0.77;;;4.00;1.00;;;;;;5140921;27;20235;-78
2023/01/16 02:34:02;;;;;;;2.05;0.90;;;4.00;1.00;;;;;;5135007;27;20193;-77
2023/01/16 02:36:41;;;;;;;1.40;1.17;;;4.20;1.00;;;;;;5133912;27;20194;-76
2023/01/16 02:39:19;;;;;;;1.77;0.88;;;4.30;1.00;;;;;;5136852;27;20227;-78
2023/01/16 02:41:51;;;;;;;1.98;0.85;;;4.10;1.00;;;;;;5136066;27;20195;-77
2023/01/16 02:44:29;;;;;;;0.80;0.80;;;4.20;1.00;;;;;;5135257;27;20208;-77
2023/01/16 02:47:16;;;;;;;2.05;0.80;;;4.30;1.00;;;;;;5133987;27;20193;-78
2023/01/16 02:49:54;;;;;;;0.90;0.90;;;4.30;1.00;;;;;;5134695;27;20232;-77
2023/01/16 02:52:30;;;;;;;1.23;1.00;;;4.10;1.00;;;;;;5134115;27;20205;-77
2023/01/16 02:55:03;;;;;;;1.20;0.80;;;4.20;1.00;;;;;;5136870;27;20204;-78
2023/01/16 02:57:36;;;;;;;1.93;0.90;;;4.30;1.00;;;;;;5129276;27;20336;-78
2023/01/16 03:00:07;;;;;;;7.85;0.93;;;4.40;1.00;;;;;;5134054;27;20463;-79
2023/01/16 03:02:36;;;;;;;1.30;1.00;;;4.30;1.00;;;;;;5134528;27;20186;-78
2023/01/16 03:05:05;;;;;;;1.70;1.00;;;4.20;1.00;;;;;;5115465;27;20217;-78
2023/01/16 03:08:17;;;;;;;0.90;0.90;;;4.30;1.00;;;;;;5133704;27;20223;-78
2023/01/16 03:11:11;;;;;;;0.80;0.80;;;4.40;1.00;;;;;;5135737;27;20210;-79
2023/01/16 03:13:59;;;;;;;0.80;0.80;;;4.40;1.00;;;;;;5132273;27;20479;-77
2023/01/16 03:16:33;;;;;;;1.33;0.80;;;4.40;1.00;;;;;;5128039;27;20202;-79
2023/01/16 03:19:17;;;;;;;1.95;0.90;;;4.40;1.00;;;;;;5135437;27;20700;-78
2023/01/16 03:21:57;;;;;;;1.00;1.00;;;4.40;1.00;;;;;;5135401;27;20199;-78
2023/01/16 03:24:33;;;;;;;3.35;0.80;;;4.40;1.00;;;;;;5137507;27;20194;-78
2023/01/16 03:27:09;;;;;;;1.50;0.80;;;4.30;1.00;;;;;;5135600;27;20197;-79
2023/01/16 03:29:44;;;;;;;1.00;1.00;;;4.20;1.00;;;;;;5137756;27;20217;-78
2023/01/16 03:32:20;;;;;;;4.20;0.85;;;4.20;1.00;;;;;;5117239;27;20197;-79
2023/01/16 03:34:54;;;;;;;1.00;0.90;;;4.10;1.00;;;;;;5131432;27;20687;-78
2023/01/16 03:37:29;;;;;;;1.33;0.90;;;4.20;1.00;;;;;;5115982;27;20197;-76
2023/01/16 03:40:03;;;;;;;1.35;1.00;;;4.20;1.00;;;;;;5133573;27;20501;-77
2023/01/16 03:42:37;;;;;;;1.08;0.90;;;4.30;1.00;;;;;;5136608;27;20197;-77
2023/01/16 03:45:09;;;;;;;2.15;0.93;;;4.40;1.00;;;;;;5132977;27;20190;-76
2023/01/16 03:47:43;;;;;;;1.15;0.98;;;4.20;1.00;;;;;;5115321;27;20216;-77
2023/01/16 03:50:14;;;;;;;3.45;0.98;;;4.20;1.00;;;;;;5132751;27;20555;-78
2023/01/16 03:52:48;;;;;;;1.33;0.88;;;4.20;1.00;;;;;;5137611;27;20197;-79
2023/01/16 03:55:22;;;;;;;2.08;0.90;;;4.30;1.00;;;;;;5138654;27;20206;-80
2023/01/16 03:57:55;;;;;;;0.95;0.80;;;4.30;1.00;;;;;;5134525;27;20295;-78
2023/01/16 04:00:26;;;;;;;1.17;1.00;;;4.30;1.00;;;;;;5117869;27;20212;-78
2023/01/16 04:02:58;;;;;;;1.10;1.10;;;4.20;1.00;;;;;;5135503;27;20306;-79
2023/01/16 04:05:32;;;;;;;1.00;1.00;;;4.10;1.00;;;;;;5137392;27;20203;-79
2023/01/16 04:08:04;;;;;;;1.20;1.00;;;4.20;1.00;;;;;;5131922;27;20655;-79
2023/01/16 04:10:35;;;;;;;0.95;0.95;;;4.40;1.00;;;;;;5137695;27;20664;-78
2023/01/16 04:13:07;;;;;;;1.00;0.88;;;4.20;1.00;;;;;;5135665;27;20201;-78
2023/01/16 04:15:39;;;;;;;1.00;1.00;;;4.20;28.20;;;;;;5132946;27;20680;-77
2023/01/16 04:18:07;;;;;;;1.10;1.00;;;4.00;1.00;;;;;;5122540;27;20198;-78
2023/01/16 04:20:40;;;;;;;2.97;0.80;;;4.10;1.00;;;;;;5135036;27;20320;-78
2023/01/16 04:23:08;;;;;;;0.80;0.80;;;4.20;1.00;;;;;;5135689;27;20195;-78
2023/01/16 04:25:37;;;;;;;1.55;0.90;;;4.20;1.00;;;;;;5129384;27;20198;-78
2023/01/16 04:28:05;;;;;;;1.30;0.90;;;4.10;1.00;;;;;;5134239;27;20198;-78
2023/01/16 04:30:33;;;;;;;0.90;0.82;;;4.10;1.00;;;;;;5127526;27;20713;-78
2023/01/16 04:33:02;;;;;;;1.77;0.90;;;4.10;1.00;;;;;;5134662;27;20214;-79
2023/01/16 04:35:30;;;;;;;1.63;0.88;;;4.30;1.00;;;;;;5138556;27;20559;-78
2023/01/16 04:38:00;;;;;;;1.80;0.88;;;4.30;1.00;;;;;;5138174;27;20190;-79
2023/01/16 04:40:28;;;;;;;1.20;1.02;;;4.20;1.00;;;;;;5130429;27;20230;-77
2023/01/16 04:42:56;;;;;;;2.65;0.90;;;4.20;1.00;;;;;;5137446;27;20222;-78
2023/01/16 04:45:25;;;;;;;0.70;0.70;;;4.10;1.00;;;;;;5134346;27;20201;-78
2023/01/16 04:47:53;;;;;;;1.40;0.88;;;4.30;1.00;;;;;;5137499;27;20207;-77
2023/01/16 04:50:21;;;;;;;1.85;1.10;;;4.20;1.00;;;;;;5135885;27;20229;-78
2023/01/16 04:52:49;;;;;;;0.80;0.80;;;4.20;1.00;;;;;;5127210;27;20202;-76
2023/01/16 04:55:20;;;;;;;1.00;0.90;;;4.20;1.00;;;;;;5134855;27;20194;-77
2023/01/16 04:57:48;;;;;;;1.63;1.02;;;4.20;1.00;;;;;;5134412;27;20446;-78
2023/01/16 05:00:17;;;;;;;1.35;0.90;;;4.20;1.00;;;;;;5132957;27;20328;-77
2023/01/16 05:02:46;;;;;;;1.25;1.10;;;4.20;1.00;;;;;;5120450;27;20190;-78
2023/01/16 05:05:14;;;;;;;2.45;1.20;;;4.10;1.00;;;;;;5137428;27;20247;-77
2023/01/16 05:07:42;;;;;;;1.30;1.00;;;4.20;1.00;;;;;;5135379;27;20221;-77
2023/01/16 05:10:11;;;;;;;1.83;1.00;;;4.20;1.00;;;;;;5135175;27;20236;-78
2023/01/16 05:12:41;;;;;;;1.20;0.90;;;4.20;1.00;;;;;;5133698;27;20198;-78
2023/01/16 05:15:10;;;;;;;1.17;1.00;;;4.30;1.00;;;;;;5136169;27;20281;-79
2023/01/16 05:17:38;;;;;;;1.95;0.85;;;4.10;1.00;;;;;;5137703;27;20196;-78
2023/01/16 05:20:07;;;;;;;2.33;1.00;;;4.10;1.00;;;;;;5139700;27;20218;-80
2023/01/16 05:22:35;;;;;;;1.20;0.98;;;4.30;1.00;;;;;;5138845;27;20189;-78
2023/01/16 05:25:04;;;;;;;3.40;0.93;;;4.20;1.00;;;;;;5134634;27;20263;-77
2023/01/16 05:27:32;;;;;;;1.45;1.00;;;4.30;1.00;;;;;;5140271;27;20443;-79
2023/01/16 05:30:02;;;;;;;0.90;0.90;;;4.30;1.00;;;;;;5139857;27;20218;-78
2023/01/16 05:32:30;;;;;;;1.00;1.00;;;4.10;1.00;;;;;;5134352;27;20313;-78
2023/01/16 05:35:00;;;;;;;1.37;0.83;;;4.30;1.00;;;;;;5135836;27;20458;-79
2023/01/16 05:37:29;;;;;;;1.30;0.98;;;4.40;1.00;;;;;;5142126;27;20444;-79
2023/01/16 05:39:57;;;;;;;1.00;0.90;;;4.30;1.00;;;;;;5144519;27;20214;-80
2023/01/16 05:42:25;;;;;;;1.23;1.13;;;4.30;1.00;;;;;;5137516;27;20243;-80
2023/01/16 05:44:54;;;;;;;1.10;1.00;;;4.30;1.00;;;;;;5131954;27;20277;-79
2023/01/16 05:47:23;;;;;;;1.55;1.00;;;4.40;1.00;;;;;;5130466;27;20452;-80
2023/01/16 05:49:52;;;;;;;2.67;1.20;;;4.40;99.90;;;;;;5119886;27;20760;-80
2023/01/16 05:52:20;;;;;;;1.20;1.10;;;4.40;1.00;;;;;;5137083;27;21335;-80
2023/01/16 05:54:48;;;;;;;2.00;1.17;;;4.30;99.90;;;;;;5115503;27;20835;-79
2023/01/16 05:57:16;;;;;;;1.60;1.00;;;4.40;99.90;;;;;;5133091;27;20194;-80
2023/01/16 05:59:45;;;;;;;1.27;1.23;;;4.40;99.90;;;;;;5143943;27;20505;-80
2023/01/16 06:02:13;;;;;;;1.27;0.90;;;4.40;99.90;;;;;;5141180;27;20492;-81
2023/01/16 06:04:43;;;;;;;0.90;0.90;;;4.40;99.90;;;;;;5139061;27;20198;-80
2023/01/16 06:07:11;;;;;;;2.85;1.73;;;4.20;99.90;;;;;;5138982;27;20516;-81
2023/01/16 06:09:40;;;;;;;1.20;0.90;;;4.30;99.90;;;;;;5138031;27;20217;-81
2023/01/16 06:12:08;;;;;;;2.28;0.90;;;4.40;1.00;;;;;;5120633;27;20217;-81
2023/01/16 06:14:36;;;;;;;2.40;1.30;;;4.30;99.90;;;;;;5120287;27;20443;-81
2023/01/16 06:17:05;;;;;;;1.45;1.00;;;4.40;99.90;;;;;;5141582;27;20205;-81
2023/01/16 06:19:33;;;;;;;0.90;0.90;;;4.40;99.90;;;;;;5132462;27;20222;-81
2023/01/16 06:22:03;;;;;;;0.95;0.80;;;4.40;99.90;;;;;;5135647;27;20205;-82
2023/01/16 06:24:31;;;;;;;1.13;1.02;;;4.40;99.90;;;;;;5123615;27;20193;-80
2023/01/16 06:26:59;;;;;;;1.20;1.10;;;4.40;99.90;;;;;;5132953;27;20222;-81
2023/01/16 06:29:28;;;;;;;1.10;1.10;;;4.40;99.90;;;;;;5113968;27;20582;-82
2023/01/16 06:31:56;;;;;;;0.80;0.80;;;4.50;99.90;;;;;;5136602;27;20214;-80
2023/01/16 06:34:24;;;;;;;0.90;0.90;;;4.40;99.90;;;;;;5139007;27;20199;-81
2023/01/16 06:36:52;;;;;;;1.35;1.10;;;4.30;99.90;;;;;;5137176;27;20202;-81
2023/01/16 06:39:22;;;;;;;2.03;1.20;;;4.30;99.90;;;;;;5139829;27;20220;-81
2023/01/16 06:41:50;;;;;;;1.30;1.20;;;4.30;99.90;;;;;;5140131;27;20450;-82
2023/01/16 06:44:18;;;;;;;1.00;0.90;;;4.40;99.90;;;;;;5135155;27;20448;-81
2023/01/16 06:46:46;;;;;;;0.80;0.80;;;4.30;99.90;;;;;;5142940;27;20903;-82
2023/01/16 06:49:14;;;;;;;1.40;0.87;;;4.20;99.90;;;;;;5145200;27;20757;-81
2023/01/16 06:51:43;;;;;;;1.10;1.00;;;4.20;99.90;;;;;;5142458;27;20480;-81
2023/01/16 06:54:12;;;;;;;0.90;0.90;;;4.20;99.90;;;;;;5146854;27;20198;-82
2023/01/16 06:56:41;;;;;;;1.15;0.98;;;4.30;99.90;;;;;;5127349;27;20202;-81
2023/01/16 06:59:10;;;;;;;1.83;0.90;;;4.30;99.90;;;;;;5148743;27;22044;-82
2023/01/16 07:01:38;;;;;;;1.10;1.00;;;4.30;99.90;;;;;;5148837;27;20205;-81
2023/01/16 07:04:07;;;;;;;1.35;0.90;;;4.30;99.90;;;;;;5147140;27;20190;-81
2023/01/16 07:06:36;;;;;;;1.50;1.00;;;4.30;99.90;;;;;;5148366;27;20236;-81
2023/01/16 07:09:04;;;;;;;0.80;0.80;;;4.40;99.90;;;;;;5148071;27;20247;-81
2023/01/16 07:11:32;;;;;;;1.48;0.90;;;4.30;99.90;;;;;;5151125;27;20236;-81
2023/01/16 07:22:38;;;;;;;1.30;0.90;;;4.30;99.90;;;;;;5139160;27;20200;-81
2023/01/16 07:25:10;;;;;;;1.02;1.00;;;4.40;99.90;;;;;;5134080;27;20263;-81
2023/01/16 07:27:39;;;;;;;4.47;1.23;;;4.40;99.90;;;;;;5115009;27;20202;-82
2023/01/16 07:30:11;;;;;;;1.13;1.00;;;4.40;99.90;;;;;;5131173;27;20301;-80
2023/01/16 07:32:40;;;;;;;0.82;0.82;;;4.50;99.90;;;;;;5134929;27;20222;-81
2023/01/16 07:35:09;;;;;;;0.90;0.90;;;4.50;99.90;;;;;;5132045;27;20190;-82
2023/01/16 07:37:38;;;;;;;1.20;1.00;;;4.50;99.90;;;;;;5136664;27;20203;-82
2023/01/16 07:40:08;;;;;;;1.15;0.85;;;4.30;99.90;;;;;;5136624;27;20222;-82
2023/01/16 07:42:36;;;;;;;1.35;1.08;;;4.40;99.90;;;;;;5137012;27;20198;-80
2023/01/16 07:45:05;;;;;;;0.80;0.80;;;4.40;99.90;;;;;;5134437;27;20212;-81
2023/01/16 07:47:36;;;;;;;1.67;0.80;;;4.50;99.90;;;;;;5129679;27;20210;-81
2023/01/16 07:50:04;;;;;;;0.80;0.80;;;4.50;99.90;;;;;;5134910;27;20213;-81
2023/01/16 07:52:33;;;;;;;0.80;0.80;;;4.50;99.90;;;;;;5134362;27;20202;-81
2023/01/16 07:55:01;;;;;;;0.88;0.88;;;4.50;99.90;;;;;;5133802;27;20205;-82
2023/01/16 07:57:29;;;;;;;1.05;0.90;;;4.50;99.90;;;;;;5122280;27;20249;-80
2023/01/16 07:59:57;;;;;;;0.87;0.87;;;4.50;99.90;;;;;;5133144;27;20270;-81
2023/01/16 08:02:25;;;;;;;1.73;0.90;;;4.60;99.90;;;;;;5133944;27;20525;-81
2023/01/16 08:04:55;;;;;;;1.77;0.90;;;4.60;99.90;;;;;;5117593;27;20727;-81
2023/01/16 08:07:23;;;;;;;2.25;1.10;;;4.50;99.90;;;;;;5133910;27;21066;-82
2023/01/16 08:09:52;;;;;;;1.17;0.97;;;4.60;99.90;;;;;;5145410;27;20766;-82
2023/01/16 08:12:20;;;;;;;10.65;1.23;;;4.60;99.90;;;;;;5142217;27;20471;-82
2023/01/16 08:14:48;;;;;;;3.65;1.45;;;4.50;99.90;;;;;;5144178;27;20251;-80
2023/01/16 08:17:16;;;;;;;1.50;1.13;;;4.50;99.90;;;;;;5145728;27;20204;-81
2023/01/16 08:19:44;;;;;;;1.45;0.98;;;4.50;99.90;;;;;;5125493;27;20225;-81
2023/01/16 08:22:14;;;;;;;1.48;1.08;;;4.60;99.90;;;;;;5142941;27;20190;-82
2023/01/16 08:24:42;;;;;;;2.10;1.17;;;4.40;99.90;;;;;;5138668;27;20838;-80
2023/01/16 08:27:10;;;;;;;1.20;0.95;;;4.40;99.90;;;;;;5130995;27;20535;-81
2023/01/16 08:29:39;;;;;;;1.00;1.00;;;4.50;99.90;;;;;;5142743;27;20222;-82
2023/01/16 08:32:07;;;;;;;1.10;1.00;;;4.50;99.90;;;;;;5144098;27;20210;-81
2023/01/16 08:34:35;;;;;;;2.13;1.15;;;4.60;99.90;;;;;;5145392;27;20923;-82
2023/01/16 08:37:04;;;;;;;4.78;1.10;;;4.60;99.90;;;;;;5141512;27;20696;-82
2023/01/16 08:39:33;;;;;;;1.00;1.00;;;4.50;99.90;;;;;;5143253;27;20239;-82
2023/01/16 08:53:06;;;;;;;1.10;1.00;;;4.50;99.90;;;;;;5140731;27;20588;-81
2023/01/16 08:55:36;;;;;;;0.90;0.90;;;4.50;99.90;;;;;;5142274;27;20717;-82
2023/01/16 08:58:04;;;;;;;1.00;0.80;;;4.60;99.90;;;;;;5136026;27;20451;-82
2023/01/16 09:00:34;;;;;;;1.00;1.00;;;4.40;99.90;;;;;;5139059;27;20222;-82
2023/01/16 09:03:02;;;;;;;1.10;0.90;;;4.50;99.90;;;;;;5138385;27;20198;-82
2023/01/16 09:05:31;;;;;;;1.20;1.10;;;4.60;99.90;;;;;;5141335;27;20460;-82
2023/01/16 09:07:59;;;;;;;2.30;0.93;;;4.50;99.90;;;;;;5140408;27;20198;-80
2023/01/16 09:10:29;;;;;;;0.80;0.80;;;4.50;99.90;;;;;;5145419;27;20304;-81
2023/01/16 09:15:44;;;;;;;1.30;1.00;;;4.60;99.90;;;;;;5132337;27;20204;-82
2023/01/16 09:18:12;;;;;;;1.77;1.20;;;4.60;99.90;;;;;;5142032;27;20201;-81
2023/01/16 09:20:41;;;;;;;1.30;1.00;;;4.60;99.90;;;;;;5135881;27;20218;-81
2023/01/16 09:23:09;;;;;;;0.90;0.90;;;4.50;99.90;;;;;;5133251;27;20859;-80
2023/01/16 09:25:37;;;;;;;1.10;1.00;;;4.50;99.90;;;;;;5120667;27;20580;-81
2023/01/16 09:28:06;;;;;;;1.58;0.80;;;4.50;99.90;;;;;;5135343;27;20194;-80
2023/01/16 09:30:35;;;;;;;1.00;1.00;;;4.60;99.90;;;;;;5131844;27;20249;-82
2023/01/16 09:33:03;;;;;;;0.80;0.80;;;4.70;99.90;;;;;;5133748;27;20554;-81
2023/01/16 09:35:31;;;;;;;1.00;0.90;;;4.60;99.90;;;;;;5121325;27;20467;-82
2023/01/16 09:37:59;;;;;;;0.80;0.80;;;4.60;99.90;;;;;;5135688;27;20217;-81
2023/01/16 09:40:27;;;;;;;0.97;0.97;;;4.70;99.90;;;;;;5136576;27;20759;-82
2023/01/16 09:46:05;;;;;;;1.20;1.13;;;4.90;99.90;;;;;;5141292;27;20458;-82
2023/01/16 09:48:36;;;;;;;3.30;0.98;;;4.80;99.90;;;;;;5143374;27;20215;-80
2023/01/16 09:51:08;;;;;;;0.90;0.90;;;4.80;99.90;;;;;;5135771;27;20226;-81
2023/01/16 09:59:24;;;;;;;0.90;0.80;;;5.10;99.90;;;;;;5129014;27;20475;-83
2023/01/16 10:01:58;;;;;;;0.90;0.90;;;5.10;99.90;;;;;;5142073;27;20198;-82
2023/01/16 10:04:29;;;;;;;2.10;1.20;;;5.10;99.90;;;;;;5143358;27;20214;-81
2023/01/16 10:07:19;;;;;;;1.47;0.90;;;5.20;99.90;;;;;;5141920;27;20477;-81
2023/01/16 10:09:56;;;;;;;0.90;0.90;;;5.10;99.90;;;;;;5126686;27;20475;-82
2023/01/16 10:12:31;;;;;;;1.20;0.90;;;5.20;99.90;;;;;;5143997;27;20272;-81
2023/01/16 10:15:13;;;;;;;1.00;1.00;;;5.10;99.90;;;;;;5133883;27;20204;-81
2023/01/16 10:17:51;;;;;;;2.10;1.10;;;5.20;99.90;;;;;;5131543;27;20518;-81
2023/01/16 10:20:41;;;;;;;2.70;1.77;;;5.20;99.90;;;;;;5136950;27;20470;-82
2023/01/16 10:23:30;;;;;;;1.10;1.00;;;5.20;99.90;;;;;;5142348;27;20508;-82
2023/01/16 10:26:05;;;;;;;1.27;0.90;;;5.20;99.90;;;;;;5141245;27;20534;-81
2023/01/16 10:28:49;;;;;;;1.07;0.90;;;5.20;99.90;;;;;;5140564;27;20491;-81
2023/01/16 10:31:25;;;;;;;1.07;0.97;;;5.20;99.90;;;;;;5134948;27;20530;-82
2023/01/16 10:33:59;;;;;;;1.15;0.90;;;5.30;99.90;;;;;;5135411;27;20479;-81
2023/01/16 10:36:31;;;;;;;1.20;1.10;;;5.30;99.90;;;;;;5139793;27;20204;-81
2023/01/16 10:39:00;;;;;;;1.33;0.90;;;5.30;99.90;;;;;;5141290;27;20464;-81
2023/01/16 10:50:06;;;;;;;1.80;1.70;;;5.30;99.90;;;;;;5115969;27;21062;-81
2023/01/16 10:52:35;;;;;;;2.83;0.77;;;5.30;99.90;;;;;;5138445;27;20448;-82
2023/01/16 10:55:05;;;;;;;0.70;0.70;;;5.40;99.90;;;;;;5138488;27;20466;-81
2023/01/16 10:57:34;;;;;;;0.70;0.70;;;5.50;99.90;;;;;;5120738;27;20461;-80
2023/01/16 11:00:08;;;;;;;0.90;0.90;;;5.50;99.90;;;;;;5136405;27;21142;-82
2023/01/16 11:02:42;;;;;;;1.00;1.00;;;5.50;99.90;;;;;;5121811;27;20585;-82
2023/01/16 11:05:28;;;;;;;0.80;0.80;;;5.50;99.90;;;;;;5135356;27;20551;-81
2023/01/16 11:08:02;;;;;;;0.80;0.80;;;5.50;99.90;;;;;;5142229;27;20451;-82
2023/01/16 11:10:30;;;;;;;0.73;0.73;;;5.50;99.90;;;;;;5144414;27;20222;-80
2023/01/16 11:18:46;;;;;;;0.80;0.80;;;5.50;99.90;;;;;;5098207;27;20463;-81
2023/01/16 11:21:17;;;;;;;1.10;1.00;;;5.50;99.90;;;;;;5146124;27;20481;-82
2023/01/16 11:23:49;;;;;;;6.30;0.98;;;5.60;99.90;;;;;;5147382;27;20214;-80
2023/01/16 11:26:18;;;;;;;0.80;0.80;;;5.50;99.90;;;;;;5147829;27;20229;-81
2023/01/16 11:28:48;;;;;;;2.17;0.90;;;5.50;99.90;;;;;;5142939;27;20452;-81
2023/01/16 11:31:22;;;;;;;0.95;0.85;;;5.40;99.90;;;;;;5144874;27;20455;-82
2023/01/16 11:33:59;;;;;;;1.05;0.95;;;5.40;99.90;;;;;;5145166;27;20225;-81
2023/01/16 11:36:30;;;;;;;0.80;0.80;;;5.50;99.90;;;;;;5146909;27;20674;-82
2023/01/16 11:38:59;;;;;;;0.85;0.85;;;5.50;99.90;;;;;;5143706;27;20467;-82
2023/01/16 11:41:32;;;;;;;2.35;0.88;;;5.50;99.90;;;;;;5137785;27;20202;-80
2023/01/16 11:47:15;;;;;;;0.80;0.80;;;5.50;99.90;;;;;;5135398;27;20481;-81
2023/01/16 11:49:48;;;;;;;0.80;0.80;;;5.60;99.90;;;;;;5133814;27;20898;-81
2023/01/16 11:52:26;;;;;;;0.80;0.80;;;5.60;99.90;;;;;;5119721;27;20517;-79
2023/01/16 11:54:56;;;;;;;0.80;0.80;;;5.60;99.90;;;;;;5143801;27;20872;-81
2023/01/16 11:57:46;;;;;;;0.77;0.77;;;5.70;99.90;;;;;;5143478;27;20453;-79
2023/01/16 12:00:41;;;;;;;0.90;0.90;;;5.70;99.90;;;;;;5142467;27;20468;-81
2023/01/16 12:03:41;;;;;;;0.80;0.80;;;5.70;1.00;;;;;;5138164;27;20456;-80
2023/01/16 12:06:24;;;;;;;0.97;0.90;;;5.60;1.00;;;;;;5134274;27;21044;-81
2023/01/16 12:09:06;;;;;;;1.63;0.87;;;5.70;1.00;;;;;;5132831;27;20927;-81
2023/01/16 12:11:54;;;;;;;0.93;0.90;;;5.70;1.00;;;;;;5110819;27;20464;-81
2023/01/16 12:14:28;;;;;;;0.90;0.90;;;5.40;1.00;;;;;;5130938;27;20585;-82
2023/01/16 12:17:16;;;;;;;0.80;0.80;;;5.30;1.00;;;;;;5119351;27;20455;-81
2023/01/16 12:20:03;;;;;;;0.90;0.90;;;5.40;1.00;;;;;;5130841;27;20500;-81
2023/01/16 12:22:53;;;;;;;0.90;0.90;;;5.50;1.00;;;;;;5136495;27;20451;-80
2023/01/16 12:25:29;;;;;;;1.00;1.00;;;5.50;1.00;;;;;;5142093;27;20456;-81
2023/01/16 12:28:10;;;;;;;0.90;0.80;;;5.60;1.00;;;;;;5136565;27;20519;-81
2023/01/16 12:30:58;;;;;;;0.90;0.90;;;5.60;1.00;;;;;;5131182;27;20467;-82
2023/01/16 12:33:34;;;;;;;0.80;0.80;;;5.60;1.00;;;;;;5129251;27;20454;-80
2023/01/16 12:36:08;;;;;;;0.80;0.80;;;5.60;1.00;;;;;;5131644;27;20842;-81
2023/01/16 12:39:02;;;;;;;1.10;0.80;;;5.70;1.00;;;;;;5133673;27;20451;-81
2023/01/16 12:44:50;;;;;;;0.80;0.80;;;5.70;94.30;;;;;;5125556;27;20523;-79
2023/01/16 12:47:36;;;;;;;1.20;1.10;;;5.80;99.40;;;;;;5107978;27;20997;-78
2023/01/16 12:50:17;;;;;;;1.10;0.90;;;6.00;99.90;;;;;;5127519;27;20920;-79
2023/01/16 12:53:01;;;;;;;0.90;0.90;;;5.80;1.00;;;;;;5128214;27;20532;-82
2023/01/16 12:55:41;;;;;;;2.90;1.00;;;5.70;1.00;;;;;;5114546;27;20483;-82
2023/01/16 12:58:23;;;;;;;0.80;0.80;;;5.70;1.00;;;;;;5121349;27;20446;-81
2023/01/16 13:01:10;;;;;;;0.80;0.80;;;5.80;1.00;;;;;;5133370;27;20470;-80
2023/01/16 13:03:45;;;;;;;0.80;0.80;;;5.80;1.00;;;;;;5135494;27;20978;-82
2023/01/16 13:06:21;;;;;;;1.13;0.90;;;5.90;1.00;;;;;;5135626;27;20456;-80
2023/01/16 13:09:00;;;;;;;0.80;0.80;;;5.90;1.00;;;;;;5132655;27;20447;-82
2023/01/16 13:14:34;;;;;;;0.90;0.90;;;6.00;1.00;;;;;;5137272;27;20472;-80
2023/01/16 13:17:07;;;;;;;0.80;0.80;;;6.00;1.00;;;;;;5132499;27;20455;-82
2023/01/16 13:19:39;;;;;;;0.80;0.80;;;6.10;1.00;;;;;;5132111;27;20558;-82
2023/01/16 13:22:20;;;;;;;0.80;0.80;;;6.20;1.00;;;;;;5127227;27;20937;-82
2023/01/16 13:24:54;;;;;;;1.43;0.80;;;6.20;1.00;;;;;;5142403;27;20484;-82
2023/01/16 13:27:33;;;;;;;0.90;0.90;;;6.20;1.00;;;;;;5142987;27;20443;-81
2023/01/16 13:30:05;;;;;;;0.80;0.80;;;6.20;1.00;;;;;;5132721;27;20479;-82
2023/01/16 13:32:38;;;;;;;1.10;1.10;;;6.40;1.00;;;;;;5112656;27;20513;-81
2023/01/16 13:35:14;;;;;;;0.87;0.87;;;6.40;1.00;;;;;;5131764;27;20458;-80
2023/01/16 13:38:13;;;;;;;0.80;0.80;;;6.30;1.00;;;;;;5131730;27;21067;-81
2023/01/16 13:41:07;;;;;;;0.80;0.80;;;6.30;1.00;;;;;;5097338;27;20511;-81
2023/01/16 13:46:30;;;;;;;0.90;0.90;;;6.30;1.00;;;;;;5130663;27;20496;-81
2023/01/16 13:49:01;;;;;;;0.97;0.97;;;6.40;1.00;;;;;;5137713;27;20488;-83
2023/01/16 13:51:30;;;;;;;0.90;0.90;;;6.30;1.00;;;;;;5135738;27;20543;-83
2023/01/16 13:54:03;;;;;;;0.80;0.80;;;6.50;1.00;;;;;;5141481;27;20443;-82
2023/01/16 13:56:31;;;;;;;1.07;0.93;;;6.50;1.00;;;;;;5135404;27;20453;-82
2023/01/16 13:59:05;;;;;;;0.93;0.90;;;6.50;1.00;;;;;;5141069;27;20504;-82
2023/01/16 14:01:56;;;;;;;0.83;0.83;;;6.40;1.00;;;;;;5141069;27;20528;-79
2023/01/16 14:04:31;;;;;;;0.77;0.77;;;6.40;1.00;;;;;;5142562;27;20546;-82
2023/01/16 14:10:14;;;;;;;0.90;0.90;;;6.30;1.00;;;;;;5141554;27;20475;-82
2023/01/16 14:12:46;;;;;;;1.13;0.70;;;6.20;1.00;;;;;;5142717;27;20839;-82
2023/01/16 14:18:19;;;;;;;0.70;0.70;;;6.20;1.00;;;;;;5135173;27;20827;-83
2023/01/16 14:20:52;;;;;;;0.80;0.80;;;6.20;1.00;;;;;;5133872;27;20531;-83
2023/01/16 14:26:08;;;;;;;0.80;0.80;;;6.20;1.00;;;;;;5126349;27;20756;-82
2023/01/16 14:28:40;;;;;;;0.80;0.80;;;6.20;1.00;;;;;;5138676;27;20538;-82
2023/01/16 14:31:22;;;;;;;0.73;0.70;;;6.10;1.00;;;;;;5135363;27;20528;-82
2023/01/16 14:33:53;;;;;;;0.80;0.80;;;6.00;1.00;;;;;;5135624;27;20455;-81
2023/01/16 14:36:24;;;;;;;0.80;0.80;;;6.00;1.00;;;;;;5131020;27;20491;-82
2023/01/16 14:38:53;;;;;;;0.70;0.70;;;6.00;1.00;;;;;;5123205;27;20547;-82
2023/01/16 14:56:11;;;;;;;1.00;0.80;;;5.80;1.00;;;;;;5129286;27;20217;-80
2023/01/16 14:58:45;;;;;;;0.80;0.80;;;5.90;66.90;;;;;;5127759;27;20434;-82